Time;durP1;ratioP1;P1;durP2;ratioP2;P2;SDS_P1;SDS_P2;PMS_P1;PMS_P2;Temp;Humidity;BMP_temperature;BMP_pressure;BME280_temperature;BME280_humidity;BME280_pressure;Samples;Min_cycle;Max_cycle;Signal;HPM_P1;HPM_P2
2022/11/04 00:01:23;;;;;;;0.83;0.30;;;15.40;99.90;;;;;;5091335;28;20511;-48
2022/11/04 00:03:50;;;;;;;1.37;0.87;;;15.30;99.90;;;;;;5091249;28;20575;-48
2022/11/04 00:06:18;;;;;;;0.90;0.40;;;15.30;99.90;;;;;;5091840;28;20527;-47
2022/11/04 00:08:49;;;;;;;1.03;0.40;;;15.40;99.90;;;;;;5091076;28;20470;-48
2022/11/04 00:14:00;;;;;;;1.13;0.40;;;15.60;99.90;;;;;;5092355;28;21009;-48
2022/11/04 00:19:11;;;;;;;0.90;0.33;;;15.50;99.90;;;;;;5091239;28;20838;-48
2022/11/04 00:29:49;;;;;;;1.10;0.40;;;15.50;99.90;;;;;;5091308;28;20553;-50
2022/11/04 00:35:00;;;;;;;0.90;0.40;;;15.50;99.90;;;;;;5090961;28;20496;-48
2022/11/04 00:37:28;;;;;;;1.77;1.50;;;15.40;99.90;;;;;;5091220;28;20950;-48
2022/11/04 00:39:55;;;;;;;2.73;1.90;;;15.20;99.90;;;;;;5090569;28;20475;-48
2022/11/04 00:42:22;;;;;;;2.83;2.10;;;14.90;99.90;;;;;;5091235;28;20446;-49
2022/11/04 00:44:49;;;;;;;3.27;2.03;;;14.60;99.90;;;;;;5090709;28;20468;-48
2022/11/04 00:47:16;;;;;;;2.63;1.57;;;14.30;99.90;;;;;;5091148;28;20447;-48
2022/11/04 00:49:43;;;;;;;1.13;0.90;;;14.20;99.90;;;;;;5090784;28;20445;-47
2022/11/04 00:52:09;;;;;;;2.10;1.50;;;14.50;99.90;;;;;;5091185;28;20432;-47
2022/11/04 00:54:38;;;;;;;2.73;1.73;;;14.50;99.90;;;;;;5090888;28;20550;-48
2022/11/04 00:57:05;;;;;;;4.23;2.30;;;14.30;99.90;;;;;;5090849;28;20539;-48
2022/11/04 00:59:32;;;;;;;3.57;2.20;;;13.80;99.90;;;;;;5092900;28;20553;-48
2022/11/04 01:01:58;;;;;;;4.23;3.60;;;13.90;99.90;;;;;;5094887;28;20442;-48
2022/11/04 01:04:25;;;;;;;4.77;3.50;;;13.90;99.90;;;;;;5094300;28;21048;-49
2022/11/04 01:06:52;;;;;;;3.33;2.93;;;13.70;99.90;;;;;;5094718;28;20974;-47
2022/11/04 01:09:19;;;;;;;3.60;2.60;;;13.50;99.90;;;;;;5094642;28;20526;-48
2022/11/04 01:11:48;;;;;;;3.20;2.20;;;13.40;99.90;;;;;;5094574;28;20550;-47
2022/11/04 01:14:15;;;;;;;4.40;2.83;;;13.40;99.90;;;;;;5094033;28;20476;-48
2022/11/04 01:16:42;;;;;;;4.50;3.13;;;13.40;99.90;;;;;;5094823;28;20703;-47
2022/11/04 01:19:09;;;;;;;3.67;2.77;;;13.50;99.90;;;;;;5094504;28;20474;-47
2022/11/04 01:21:36;;;;;;;2.93;2.63;;;13.20;99.90;;;;;;5094624;28;20524;-49
2022/11/04 01:24:04;;;;;;;2.90;2.00;;;13.20;99.90;;;;;;5094070;28;21050;-47
2022/11/04 01:26:31;;;;;;;2.93;2.00;;;13.40;99.90;;;;;;5094113;28;20469;-47
2022/11/04 01:29:00;;;;;;;3.30;2.17;;;13.50;99.90;;;;;;5094547;28;20474;-48
2022/11/04 01:31:29;;;;;;;2.20;2.00;;;13.60;99.90;;;;;;5094300;28;20448;-48
2022/11/04 01:33:57;;;;;;;3.20;2.80;;;13.50;99.90;;;;;;5094052;28;20492;-48
2022/11/04 01:36:24;;;;;;;3.67;2.47;;;13.40;99.90;;;;;;5093858;28;20520;-48
2022/11/04 01:38:52;;;;;;;7.10;3.50;;;13.20;99.90;;;;;;5093292;28;20537;-47
2022/11/04 01:41:21;;;;;;;4.50;3.90;;;13.00;99.90;;;;;;5094174;28;21014;-48
2022/11/04 01:43:50;;;;;;;4.73;3.23;;;13.00;99.90;;;;;;5094217;28;20463;-48
2022/11/04 01:46:35;;;;;;;4.77;3.80;;;12.80;99.90;;;;;;5093943;28;20448;-47
2022/11/04 01:49:09;;;;;;;4.93;2.60;;;12.80;99.90;;;;;;5093931;28;20526;-50
2022/11/04 01:51:39;;;;;;;4.77;3.50;;;13.00;99.90;;;;;;5094044;28;20442;-48
2022/11/04 01:54:08;;;;;;;3.30;2.53;;;13.10;99.90;;;;;;5093434;28;20557;-47
2022/11/04 01:56:36;;;;;;;3.90;2.90;;;13.20;99.90;;;;;;5093592;28;20486;-50
2022/11/04 01:59:07;;;;;;;6.33;2.20;;;13.20;99.90;;;;;;5093604;28;20462;-48
2022/11/04 02:01:35;;;;;;;2.30;1.43;;;13.30;99.90;;;;;;5093446;28;20539;-48
2022/11/04 02:06:43;;;;;;;1.90;1.40;;;13.60;99.90;;;;;;5092597;28;20427;-48
2022/11/04 02:09:11;;;;;;;2.23;1.30;;;13.60;99.90;;;;;;5093028;28;20882;-48
2022/11/04 02:14:22;;;;;;;1.93;1.00;;;13.40;99.90;;;;;;5093101;28;20445;-49
2022/11/04 02:16:50;;;;;;;5.43;1.77;;;13.50;99.90;;;;;;5093585;28;20529;-48
2022/11/04 02:19:41;;;;;;;1.70;0.97;;;13.50;99.90;;;;;;5093382;28;20474;-48
2022/11/04 02:22:41;;;;;;;2.00;1.10;;;13.20;99.90;;;;;;5093121;28;20886;-48
2022/11/04 02:25:36;;;;;;;2.43;1.20;;;13.10;99.90;;;;;;5093330;28;20472;-49
2022/11/04 02:28:27;;;;;;;2.40;1.40;;;12.90;99.90;;;;;;5093317;28;20466;-49
2022/11/04 02:31:03;;;;;;;2.53;1.43;;;12.90;99.90;;;;;;5093354;28;20525;-48
2022/11/04 02:33:39;;;;;;;2.20;1.33;;;12.80;99.90;;;;;;5092640;28;20872;-48
2022/11/04 02:36:15;;;;;;;2.03;1.83;;;12.70;99.90;;;;;;5093152;28;20453;-46
2022/11/04 02:38:51;;;;;;;2.17;1.20;;;12.70;99.90;;;;;;5092526;28;20520;-46
2022/11/04 02:41:29;;;;;;;2.47;1.27;;;12.50;99.90;;;;;;5092963;28;20667;-46
2022/11/04 02:44:07;;;;;;;3.50;1.47;;;12.40;99.90;;;;;;5092256;28;20462;-47
2022/11/04 02:46:38;;;;;;;5.63;1.47;;;12.30;99.90;;;;;;5092961;28;20536;-46
2022/11/04 02:49:10;;;;;;;3.57;1.40;;;12.10;99.90;;;;;;5092603;28;20435;-46
2022/11/04 02:51:42;;;;;;;3.07;1.83;;;12.10;99.90;;;;;;5093266;28;20535;-46
2022/11/04 02:54:14;;;;;;;1.50;0.90;;;12.00;99.90;;;;;;5092569;28;20464;-46
2022/11/04 02:56:46;;;;;;;2.17;1.17;;;11.90;99.90;;;;;;5092325;28;20937;-46
2022/11/04 02:59:20;;;;;;;1.67;1.07;;;11.80;99.90;;;;;;5092622;28;20471;-49
2022/11/04 03:01:52;;;;;;;1.00;0.63;;;11.60;99.90;;;;;;5092779;28;20523;-48
2022/11/04 03:04:23;;;;;;;1.33;0.67;;;11.40;99.90;;;;;;5092377;28;20483;-46
2022/11/04 03:06:53;;;;;;;1.63;0.77;;;11.20;99.90;;;;;;5092444;28;20493;-46
2022/11/04 03:09:22;;;;;;;3.43;0.83;;;11.00;99.90;;;;;;5092416;28;20522;-46
2022/11/04 03:11:54;;;;;;;1.00;0.50;;;10.90;99.90;;;;;;5092386;28;20446;-46
2022/11/04 03:14:24;;;;;;;1.10;0.50;;;10.70;99.90;;;;;;5092129;28;20499;-45
2022/11/04 03:16:57;;;;;;;2.67;0.83;;;10.60;99.90;;;;;;5092374;28;20528;-45
2022/11/04 03:19:29;;;;;;;4.40;0.97;;;10.50;99.90;;;;;;5092508;28;20523;-48
2022/11/04 03:22:00;;;;;;;2.33;0.73;;;10.40;99.90;;;;;;5091267;28;20486;-45
2022/11/04 03:24:28;;;;;;;0.90;0.50;;;10.20;99.90;;;;;;5091746;28;20498;-46
2022/11/04 03:27:00;;;;;;;2.53;0.70;;;10.00;99.90;;;;;;5092143;28;20439;-45
2022/11/04 03:29:30;;;;;;;3.00;0.80;;;9.90;99.90;;;;;;5092201;28;20444;-46
2022/11/04 03:32:07;;;;;;;1.10;0.67;;;9.90;99.90;;;;;;5092097;28;20542;-47
2022/11/04 03:34:35;;;;;;;6.23;1.27;;;9.90;99.90;;;;;;5091479;28;20536;-46
2022/11/04 03:37:03;;;;;;;9.20;1.90;;;9.80;99.90;;;;;;5092399;28;20475;-47
2022/11/04 03:39:30;;;;;;;1.30;0.70;;;9.70;99.90;;;;;;5091714;28;20435;-47
2022/11/04 03:41:59;;;;;;;1.10;0.60;;;9.60;99.90;;;;;;5091981;28;20439;-48
2022/11/04 03:44:28;;;;;;;1.00;0.60;;;9.50;99.90;;;;;;5091445;28;20550;-46
2022/11/04 03:46:55;;;;;;;1.93;1.17;;;9.40;99.90;;;;;;5091771;28;20440;-46
2022/11/04 03:49:24;;;;;;;1.40;0.63;;;9.40;99.90;;;;;;5091707;28;20451;-48
2022/11/04 03:51:52;;;;;;;1.00;0.70;;;9.40;99.90;;;;;;5091851;28;20531;-47
2022/11/04 03:54:19;;;;;;;0.90;0.50;;;9.40;99.90;;;;;;5091533;28;20493;-47
2022/11/04 03:57:06;;;;;;;1.10;0.50;;;9.30;99.90;;;;;;5091415;28;20442;-47
2022/11/04 04:00:01;;;;;;;1.37;0.67;;;9.30;99.90;;;;;;5091803;28;20499;-47
2022/11/04 04:02:39;;;;;;;3.33;0.50;;;9.10;99.90;;;;;;5091336;28;20486;-47
2022/11/04 04:05:14;;;;;;;3.63;0.60;;;9.20;99.90;;;;;;5091393;28;20518;-47
2022/11/04 04:07:48;;;;;;;0.90;0.40;;;9.10;99.90;;;;;;5091230;28;20880;-50
2022/11/04 04:13:09;;;;;;;0.90;0.50;;;9.00;99.90;;;;;;5090919;28;20443;-47
2022/11/04 04:15:47;;;;;;;0.83;0.30;;;9.10;99.90;;;;;;5091528;28;20480;-47
2022/11/04 04:18:16;;;;;;;1.50;0.60;;;9.10;99.90;;;;;;5091304;28;20874;-49
2022/11/04 04:20:47;;;;;;;1.30;0.43;;;8.90;99.90;;;;;;5091344;28;20476;-47
2022/11/04 04:28:51;;;;;;;1.07;0.43;;;8.90;99.90;;;;;;5092718;28;20443;-47
2022/11/04 04:34:00;;;;;;;1.00;0.40;;;8.80;99.90;;;;;;5093772;28;20446;-47
2022/11/04 04:36:29;;;;;;;1.07;0.50;;;8.70;99.90;;;;;;5095528;28;20445;-48
2022/11/04 04:47:19;;;;;;;1.00;0.50;;;8.40;99.90;;;;;;5094914;28;20476;-47
2022/11/04 04:49:50;;;;;;;1.40;0.47;;;8.20;99.90;;;;;;5095314;28;20438;-47
2022/11/04 04:52:19;;;;;;;1.10;0.60;;;8.20;99.90;;;;;;5095110;28;20527;-47
2022/11/04 04:54:46;;;;;;;1.00;0.70;;;8.10;99.90;;;;;;5094823;28;20463;-48
2022/11/04 04:57:13;;;;;;;1.30;0.70;;;8.00;99.90;;;;;;5094706;28;20533;-47
2022/11/04 04:59:39;;;;;;;1.30;0.93;;;8.00;99.90;;;;;;5095133;28;20518;-47
2022/11/04 05:02:06;;;;;;;2.37;1.07;;;8.10;99.90;;;;;;5094898;28;20813;-49
2022/11/04 05:04:33;;;;;;;1.63;1.00;;;8.10;99.90;;;;;;5094749;28;20588;-47
2022/11/04 05:07:00;;;;;;;2.20;0.80;;;8.10;99.90;;;;;;5094852;28;20438;-48
2022/11/04 05:09:29;;;;;;;1.20;0.60;;;8.00;99.90;;;;;;5094636;28;20533;-48
2022/11/04 05:11:55;;;;;;;2.60;1.07;;;8.10;99.90;;;;;;5094509;28;20532;-48
2022/11/04 05:14:22;;;;;;;1.60;0.53;;;8.20;99.90;;;;;;5094306;28;20469;-47
2022/11/04 05:16:49;;;;;;;1.27;0.80;;;8.10;99.90;;;;;;5094915;28;20494;-50
2022/11/04 05:19:16;;;;;;;1.70;0.80;;;8.10;99.90;;;;;;5094461;28;20444;-48
2022/11/04 05:21:43;;;;;;;1.20;0.73;;;7.90;99.90;;;;;;5094542;28;20562;-48
2022/11/04 05:24:10;;;;;;;1.93;0.70;;;7.90;99.90;;;;;;5094370;28;20546;-49
2022/11/04 05:26:38;;;;;;;1.23;0.93;;;8.00;99.90;;;;;;5094324;28;20432;-47
2022/11/04 05:29:05;;;;;;;1.23;0.60;;;8.00;99.90;;;;;;5094318;28;20950;-48
2022/11/04 05:31:32;;;;;;;1.60;0.80;;;8.10;99.90;;;;;;5094119;28;20540;-50
2022/11/04 05:34:00;;;;;;;1.30;0.60;;;8.00;99.90;;;;;;5093962;28;20554;-48
2022/11/04 05:36:27;;;;;;;1.20;0.73;;;7.90;99.90;;;;;;5094209;28;20455;-49
2022/11/04 05:38:55;;;;;;;1.43;0.90;;;8.00;99.90;;;;;;5093630;28;20475;-48
2022/11/04 05:41:25;;;;;;;1.30;0.60;;;7.90;99.90;;;;;;5094093;28;20478;-47
2022/11/04 05:43:54;;;;;;;1.30;0.63;;;8.10;99.90;;;;;;5093385;28;20468;-48
2022/11/04 05:46:22;;;;;;;1.17;0.80;;;7.90;99.90;;;;;;5093501;28;20526;-48
2022/11/04 05:48:49;;;;;;;1.00;0.60;;;7.90;99.90;;;;;;5093865;28;20440;-48
2022/11/04 05:51:17;;;;;;;1.00;0.60;;;8.20;99.90;;;;;;5093957;28;20534;-48
2022/11/04 05:53:44;;;;;;;1.50;1.30;;;8.40;99.90;;;;;;5093544;28;20468;-48
2022/11/04 05:56:11;;;;;;;1.00;0.50;;;8.20;99.90;;;;;;5093506;28;20440;-48
2022/11/04 05:58:38;;;;;;;1.13;0.60;;;8.40;99.90;;;;;;5093781;28;20454;-48
2022/11/04 06:01:22;;;;;;;5.23;2.23;;;8.50;99.90;;;;;;5093685;28;20933;-48
2022/11/04 06:03:49;;;;;;;3.73;1.50;;;8.40;99.90;;;;;;5093412;28;20467;-47
2022/11/04 06:06:16;;;;;;;2.50;1.33;;;8.50;99.90;;;;;;5094044;28;20539;-48
2022/11/04 06:08:43;;;;;;;1.43;0.80;;;8.50;99.90;;;;;;5093316;28;20484;-48
2022/11/04 06:11:10;;;;;;;1.53;1.10;;;8.70;99.90;;;;;;5093318;28;20523;-48
2022/11/04 06:13:37;;;;;;;1.87;1.30;;;8.80;99.90;;;;;;5094261;28;20537;-50
2022/11/04 06:16:04;;;;;;;2.27;1.40;;;8.90;99.90;;;;;;5093238;28;20903;-48
2022/11/04 06:18:32;;;;;;;2.33;1.20;;;8.80;99.90;;;;;;5093543;28;20518;-48
2022/11/04 06:21:10;;;;;;;1.60;1.50;;;8.90;99.90;;;;;;5093200;28;20475;-48
2022/11/04 06:23:37;;;;;;;1.63;1.20;;;9.00;99.90;;;;;;5092903;28;20900;-48
2022/11/04 06:26:04;;;;;;;2.10;1.50;;;9.00;99.90;;;;;;5093176;28;20436;-48
2022/11/04 06:28:31;;;;;;;1.90;1.37;;;9.00;99.90;;;;;;5093474;28;20869;-48
2022/11/04 06:30:59;;;;;;;3.23;2.00;;;8.90;99.90;;;;;;5093458;28;20572;-48
2022/11/04 06:33:26;;;;;;;3.20;1.20;;;8.70;99.90;;;;;;5093078;28;20480;-51
2022/11/04 06:35:57;;;;;;;2.33;1.60;;;8.60;99.90;;;;;;5093259;28;20527;-48
2022/11/04 06:38:24;;;;;;;2.40;1.63;;;8.70;99.90;;;;;;5093188;28;20962;-48
2022/11/04 06:40:51;;;;;;;2.73;2.13;;;8.60;99.90;;;;;;5092534;28;21009;-48
2022/11/04 06:43:17;;;;;;;5.80;2.60;;;8.70;99.90;;;;;;5092982;28;20466;-48
2022/11/04 06:45:44;;;;;;;2.73;1.70;;;8.60;99.90;;;;;;5092910;28;20924;-48
2022/11/04 06:48:11;;;;;;;2.43;1.30;;;8.50;99.90;;;;;;5092901;28;21019;-49
2022/11/04 06:50:38;;;;;;;2.30;1.33;;;8.60;99.90;;;;;;5093180;28;21031;-48
2022/11/04 06:53:06;;;;;;;1.60;1.30;;;8.80;99.90;;;;;;5092524;28;21031;-49
2022/11/04 06:55:33;;;;;;;2.13;1.10;;;9.00;99.90;;;;;;5092400;28;20518;-48
2022/11/04 06:58:00;;;;;;;1.57;0.90;;;9.10;99.90;;;;;;5092618;28;20446;-47
2022/11/04 07:00:27;;;;;;;2.00;0.90;;;9.10;99.90;;;;;;5092694;28;20444;-47
2022/11/04 07:02:54;;;;;;;3.17;1.90;;;8.90;99.90;;;;;;5092397;28;20446;-50
2022/11/04 07:05:21;;;;;;;2.10;1.50;;;8.90;99.90;;;;;;5093043;28;20531;-47
2022/11/04 07:07:47;;;;;;;3.23;2.00;;;9.00;99.90;;;;;;5092170;28;20952;-46
2022/11/04 07:10:17;;;;;;;1.90;1.33;;;8.90;99.90;;;;;;5092540;28;20884;-48
2022/11/04 07:12:43;;;;;;;1.93;0.80;;;9.00;99.90;;;;;;5092589;28;20440;-48
2022/11/04 07:15:11;;;;;;;1.50;1.20;;;9.00;99.90;;;;;;5092306;28;20438;-48
2022/11/04 07:17:38;;;;;;;2.10;0.80;;;9.10;99.90;;;;;;5092965;28;20519;-48
2022/11/04 07:20:06;;;;;;;2.33;1.43;;;9.20;99.90;;;;;;5092364;28;20486;-48
2022/11/04 07:22:33;;;;;;;2.40;1.27;;;9.00;99.90;;;;;;5091988;28;20922;-48
2022/11/04 07:25:00;;;;;;;4.80;1.73;;;8.80;99.90;;;;;;5091997;28;20842;-49
2022/11/04 07:27:28;;;;;;;2.67;1.20;;;8.80;99.90;;;;;;5092280;28;20437;-46
2022/11/04 07:29:55;;;;;;;3.37;1.50;;;8.70;99.90;;;;;;5092134;28;20444;-46
2022/11/04 07:32:21;;;;;;;2.60;1.17;;;8.50;99.90;;;;;;5091729;28;20458;-48
2022/11/04 07:34:48;;;;;;;2.97;1.20;;;8.20;99.90;;;;;;5092065;28;20542;-46
2022/11/04 07:37:15;;;;;;;2.80;1.60;;;8.20;99.90;;;;;;5091871;28;20458;-46
2022/11/04 07:39:42;;;;;;;2.60;1.10;;;8.10;99.90;;;;;;5091815;28;20444;-49
2022/11/04 07:42:09;;;;;;;1.50;1.00;;;8.00;99.90;;;;;;5092108;28;20562;-47
2022/11/04 07:44:37;;;;;;;1.50;1.20;;;7.90;99.90;;;;;;5091767;28;20543;-47
2022/11/04 07:47:04;;;;;;;3.23;1.20;;;7.80;99.90;;;;;;5091807;28;20527;-46
2022/11/04 07:49:31;;;;;;;1.47;1.20;;;8.10;99.90;;;;;;5091875;28;20439;-49
2022/11/04 07:51:57;;;;;;;2.00;1.47;;;7.80;99.90;;;;;;5092122;28;20436;-47
2022/11/04 07:54:24;;;;;;;2.40;2.20;;;7.30;99.90;;;;;;5091404;28;20551;-47
2022/11/04 07:56:51;;;;;;;2.13;1.40;;;7.90;99.90;;;;;;5091577;28;20531;-49
2022/11/04 07:59:18;;;;;;;1.73;0.83;;;8.20;99.90;;;;;;5091627;28;20530;-48
2022/11/04 08:01:46;;;;;;;1.10;0.60;;;8.30;99.90;;;;;;5091799;28;20574;-47
2022/11/04 08:04:13;;;;;;;2.13;1.33;;;8.30;99.90;;;;;;5091422;28;20467;-47
2022/11/04 08:06:40;;;;;;;2.37;2.00;;;8.30;99.90;;;;;;5091565;28;20895;-47
2022/11/04 08:09:07;;;;;;;2.80;1.90;;;8.20;99.90;;;;;;5090878;28;20435;-47
2022/11/04 08:11:33;;;;;;;3.30;1.63;;;8.20;99.90;;;;;;5091397;28;20527;-47
2022/11/04 08:14:03;;;;;;;2.40;1.20;;;8.40;99.90;;;;;;5091050;28;20558;-47
2022/11/04 08:16:30;;;;;;;1.60;1.00;;;8.40;99.90;;;;;;5091611;28;20478;-49
2022/11/04 08:19:00;;;;;;;1.30;0.80;;;8.50;99.90;;;;;;5091782;28;20451;-46
2022/11/04 08:21:28;;;;;;;1.30;1.00;;;8.50;99.90;;;;;;5091134;28;20479;-48
2022/11/04 08:23:55;;;;;;;1.80;1.20;;;8.50;99.90;;;;;;5091584;28;20456;-49
2022/11/04 08:26:23;;;;;;;2.63;1.70;;;8.60;99.90;;;;;;5091302;28;20887;-46
2022/11/04 08:28:50;;;;;;;2.27;1.30;;;8.50;99.90;;;;;;5091353;28;20789;-50
2022/11/04 08:31:19;;;;;;;2.00;1.17;;;8.40;99.90;;;;;;5091447;28;20435;-48
2022/11/04 08:33:46;;;;;;;1.40;1.00;;;8.10;99.90;;;;;;5091192;28;20563;-50
2022/11/04 08:36:17;;;;;;;1.90;0.93;;;8.10;99.90;;;;;;5091302;28;20443;-47
2022/11/04 08:38:44;;;;;;;1.43;1.20;;;8.00;99.90;;;;;;5090800;28;20543;-49
2022/11/04 08:41:13;;;;;;;2.60;1.77;;;8.10;99.90;;;;;;5091458;28;20490;-47
2022/11/04 08:43:40;;;;;;;4.07;1.93;;;8.10;99.90;;;;;;5090826;28;20816;-49
2022/11/04 08:46:09;;;;;;;1.30;0.93;;;8.10;99.90;;;;;;5091423;28;20440;-47
2022/11/04 08:48:38;;;;;;;1.80;1.20;;;8.10;99.90;;;;;;5091381;28;20527;-49
2022/11/04 08:51:07;;;;;;;3.07;1.17;;;8.20;99.90;;;;;;5091169;28;20479;-49
2022/11/04 08:53:35;;;;;;;2.27;1.10;;;8.10;99.90;;;;;;5090959;28;20551;-47
2022/11/04 08:56:09;;;;;;;2.43;1.20;;;8.20;99.90;;;;;;5091140;28;20443;-48
2022/11/04 08:58:36;;;;;;;4.43;2.73;;;8.20;99.90;;;;;;5091060;28;20526;-47
2022/11/04 09:01:04;;;;;;;4.20;3.43;;;7.70;99.90;;;;;;5090851;28;20531;-49
2022/11/04 09:03:32;;;;;;;2.43;1.77;;;7.70;99.90;;;;;;5090575;28;20470;-47
2022/11/04 09:05:59;;;;;;;3.17;2.33;;;7.80;99.90;;;;;;5091221;28;20823;-47
2022/11/04 09:08:26;;;;;;;2.20;1.13;;;7.80;99.90;;;;;;5091233;28;20443;-50
2022/11/04 09:10:54;;;;;;;2.10;1.57;;;8.00;99.90;;;;;;5090811;28;20995;-47
2022/11/04 09:13:21;;;;;;;1.60;0.93;;;7.80;99.90;;;;;;5090649;28;20836;-47
2022/11/04 09:15:48;;;;;;;1.60;1.20;;;7.80;99.90;;;;;;5090762;28;20444;-47
2022/11/04 09:18:16;;;;;;;1.20;1.00;;;7.80;99.90;;;;;;5091027;28;20444;-47
2022/11/04 09:20:43;;;;;;;1.97;1.37;;;7.70;99.90;;;;;;5093248;28;20442;-48
2022/11/04 09:23:10;;;;;;;3.40;2.40;;;7.70;99.90;;;;;;5094518;28;20566;-47
2022/11/04 09:25:37;;;;;;;1.57;1.30;;;7.70;99.90;;;;;;5094515;28;21006;-47
2022/11/04 09:28:06;;;;;;;3.40;2.10;;;7.70;99.90;;;;;;5094373;28;20479;-47
2022/11/04 09:30:33;;;;;;;3.00;2.60;;;7.80;99.90;;;;;;5094325;28;20439;-46
2022/11/04 09:33:00;;;;;;;2.03;1.60;;;7.90;99.90;;;;;;5094299;28;20531;-48
2022/11/04 09:35:27;;;;;;;2.77;1.70;;;7.90;99.90;;;;;;5094468;28;20524;-47
2022/11/04 09:37:54;;;;;;;1.80;1.40;;;7.90;99.90;;;;;;5094242;28;20455;-46
2022/11/04 09:40:24;;;;;;;1.00;0.57;;;7.90;99.90;;;;;;5094230;28;20438;-47
2022/11/04 09:43:02;;;;;;;1.20;0.53;;;7.70;99.90;;;;;;5093589;28;20497;-46
2022/11/04 09:45:32;;;;;;;1.03;0.50;;;7.70;99.90;;;;;;5094186;28;20436;-47
2022/11/04 09:48:03;;;;;;;1.30;0.70;;;7.50;99.90;;;;;;5093799;28;20995;-47
2022/11/04 09:50:32;;;;;;;1.00;0.50;;;6.90;99.90;;;;;;5094035;28;20518;-48
2022/11/04 09:53:06;;;;;;;1.40;0.67;;;7.20;99.90;;;;;;5093741;28;20494;-47
2022/11/04 09:55:40;;;;;;;0.90;0.47;;;7.30;99.90;;;;;;5093752;28;20446;-47
2022/11/04 09:58:11;;;;;;;1.30;0.70;;;6.60;99.90;;;;;;5093923;28;20470;-47
2022/11/04 10:00:41;;;;;;;1.20;0.60;;;6.20;99.90;;;;;;5094068;28;20526;-47
2022/11/04 10:03:23;;;;;;;1.17;0.70;;;6.10;99.90;;;;;;5093570;28;20574;-47
2022/11/04 10:06:04;;;;;;;1.07;0.50;;;6.20;99.90;;;;;;5093616;28;20832;-47
2022/11/04 10:08:47;;;;;;;1.00;0.60;;;6.20;99.90;;;;;;5093850;28;20885;-47
2022/11/04 10:11:22;;;;;;;1.50;0.77;;;6.10;99.90;;;;;;5093709;28;20447;-48
2022/11/04 10:14:07;;;;;;;2.33;0.60;;;6.10;99.90;;;;;;5093085;28;20562;-46
2022/11/04 10:16:46;;;;;;;1.57;0.60;;;6.20;99.90;;;;;;5093658;28;20444;-47
2022/11/04 10:19:28;;;;;;;1.33;0.60;;;6.30;99.90;;;;;;5093622;28;20485;-47
2022/11/04 10:22:04;;;;;;;1.30;0.67;;;6.30;99.90;;;;;;5093286;28;20474;-48
2022/11/04 10:24:41;;;;;;;1.83;0.60;;;6.20;99.90;;;;;;5092981;28;20463;-47
2022/11/04 10:27:15;;;;;;;1.27;0.57;;;6.10;99.90;;;;;;5093657;28;20438;-47
2022/11/04 10:29:44;;;;;;;1.30;0.70;;;5.80;99.90;;;;;;5093841;28;20497;-47
2022/11/04 10:32:17;;;;;;;1.03;0.57;;;5.60;99.90;;;;;;5092824;28;20519;-47
2022/11/04 10:34:50;;;;;;;1.17;0.70;;;5.30;99.90;;;;;;5092833;28;20574;-46
2022/11/04 10:37:17;;;;;;;1.00;0.80;;;5.10;99.90;;;;;;5093120;28;20547;-47
2022/11/04 10:39:46;;;;;;;0.90;0.60;;;4.80;99.90;;;;;;5092900;28;20443;-47
2022/11/04 10:42:17;;;;;;;1.57;0.93;;;4.60;99.90;;;;;;5093041;28;20480;-46
2022/11/04 10:44:45;;;;;;;0.97;0.60;;;4.60;99.90;;;;;;5092553;28;20561;-46
2022/11/04 10:47:28;;;;;;;1.10;0.70;;;5.40;99.90;;;;;;5092837;28;20539;-49
2022/11/04 10:50:24;;;;;;;0.90;0.50;;;5.80;99.90;;;;;;5092878;28;20934;-46
2022/11/04 10:52:51;;;;;;;1.07;0.60;;;5.90;99.90;;;;;;5084098;28;20534;-47
2022/11/04 10:55:30;;;;;;;2.27;1.00;;;4.70;99.90;;;;;;5092498;28;20543;-46
2022/11/04 10:57:59;;;;;;;1.30;0.70;;;4.10;99.90;;;;;;5092667;28;20984;-46
2022/11/04 11:00:34;;;;;;;1.00;0.60;;;4.10;99.90;;;;;;5092852;28;20524;-47
2022/11/04 11:03:02;;;;;;;1.17;0.60;;;4.00;99.90;;;;;;5092010;28;20973;-46
2022/11/04 11:05:30;;;;;;;1.10;0.43;;;4.60;99.90;;;;;;5092362;28;20948;-47
2022/11/04 11:07:58;;;;;;;0.93;0.60;;;5.10;99.90;;;;;;5092392;28;20451;-46
2022/11/04 11:10:27;;;;;;;1.17;0.70;;;5.40;99.90;;;;;;5092311;28;20471;-46
2022/11/04 11:12:57;;;;;;;0.90;0.50;;;5.00;99.90;;;;;;5091962;28;20523;-46
2022/11/04 11:15:31;;;;;;;3.20;0.60;;;4.20;99.90;;;;;;5092805;28;20543;-49
2022/11/04 11:18:10;;;;;;;1.17;0.80;;;4.50;99.90;;;;;;5091879;28;20455;-46
2022/11/04 11:20:39;;;;;;;1.17;0.80;;;4.90;99.90;;;;;;5092260;28;20446;-46
2022/11/04 11:23:29;;;;;;;1.20;0.50;;;5.10;99.90;;;;;;5092014;28;20477;-47
2022/11/04 11:25:56;;;;;;;2.00;1.90;;;5.30;99.90;;;;;;5092148;28;20528;-46
2022/11/04 11:28:25;;;;;;;3.60;3.30;;;5.60;99.90;;;;;;5091980;28;20454;-46
2022/11/04 11:30:58;;;;;;;4.90;4.20;;;5.70;99.90;;;;;;5091963;28;20525;-45
2022/11/04 11:33:29;;;;;;;5.73;4.07;;;5.70;99.90;;;;;;5091517;28;20489;-46
2022/11/04 11:36:00;;;;;;;3.00;2.53;;;5.40;99.90;;;;;;5092058;28;20445;-46
2022/11/04 11:38:29;;;;;;;2.67;2.40;;;5.60;99.90;;;;;;5091904;28;20523;-46
2022/11/04 11:41:06;;;;;;;2.17;1.77;;;5.60;99.90;;;;;;5091341;28;20465;-43
2022/11/04 11:43:36;;;;;;;3.40;2.80;;;5.70;99.90;;;;;;5090563;28;20478;-45
2022/11/04 11:46:03;;;;;;;8.50;6.70;;;5.60;99.90;;;;;;5091036;28;20465;-46
2022/11/04 11:48:39;;;;;;;8.30;7.40;;;5.50;99.90;;;;;;5092149;28;20476;-46
2022/11/04 11:51:07;;;;;;;7.10;6.50;;;5.40;99.90;;;;;;5091996;28;20529;-46
2022/11/04 11:53:38;;;;;;;5.20;4.00;;;5.30;99.90;;;;;;5091208;28;20467;-49
2022/11/04 11:56:14;;;;;;;6.57;5.33;;;4.90;99.90;;;;;;5091946;28;20446;-46
2022/11/04 11:58:49;;;;;;;4.13;3.73;;;3.60;99.90;;;;;;5090842;28;20513;-46
2022/11/04 12:01:22;;;;;;;4.50;4.10;;;3.10;99.90;;;;;;5090663;28;20502;-47
2022/11/04 12:03:51;;;;;;;3.20;3.00;;;2.90;99.90;;;;;;5090829;28;20505;-47
2022/11/04 12:06:29;;;;;;;3.53;2.83;;;3.00;99.90;;;;;;5091264;28;20531;-46
2022/11/04 12:09:25;;;;;;;4.23;3.30;;;3.70;99.90;;;;;;5091326;28;20448;-46
2022/11/04 12:12:05;;;;;;;4.00;2.50;;;4.40;99.90;;;;;;5091166;28;20438;-46
2022/11/04 12:14:43;;;;;;;7.60;5.60;;;4.70;99.90;;;;;;5092264;28;20508;-46
2022/11/04 12:17:20;;;;;;;7.47;6.40;;;4.60;99.90;;;;;;5091717;28;20445;-48
2022/11/04 12:20:04;;;;;;;8.67;5.80;;;5.00;99.90;;;;;;5091526;28;20548;-47
2022/11/04 12:22:43;;;;;;;4.37;3.87;;;5.30;99.90;;;;;;5091280;28;20483;-46
2022/11/04 12:25:19;;;;;;;4.40;4.00;;;5.30;99.90;;;;;;5091382;28;20447;-47
2022/11/04 12:27:52;;;;;;;7.53;5.50;;;5.40;99.90;;;;;;5091329;28;20530;-48
2022/11/04 12:30:21;;;;;;;11.47;5.80;;;5.50;99.90;;;;;;5091483;28;20446;-46
2022/11/04 12:33:01;;;;;;;10.33;7.10;;;5.40;99.90;;;;;;5090848;28;20531;-46
2022/11/04 12:35:44;;;;;;;8.53;6.87;;;5.50;99.90;;;;;;5091390;28;20488;-46
2022/11/04 12:38:32;;;;;;;6.70;5.70;;;4.80;99.90;;;;;;5091144;28;20937;-48
2022/11/04 12:41:07;;;;;;;7.00;5.13;;;4.00;99.90;;;;;;5090700;28;20534;-46
2022/11/04 12:43:41;;;;;;;6.53;4.70;;;3.70;99.90;;;;;;5090967;28;20509;-47
2022/11/04 12:46:17;;;;;;;7.07;4.70;;;4.30;99.90;;;;;;5091002;28;20442;-46
2022/11/04 12:49:06;;;;;;;5.00;4.30;;;4.80;99.90;;;;;;5091276;28;20537;-46
2022/11/04 12:51:45;;;;;;;6.10;4.40;;;5.00;99.90;;;;;;5087589;28;20460;-47
2022/11/04 12:54:39;;;;;;;5.23;4.10;;;4.10;99.90;;;;;;5092374;28;20972;-48
2022/11/04 12:57:17;;;;;;;6.60;4.60;;;3.70;99.90;;;;;;5094834;28;20530;-48
2022/11/04 12:59:59;;;;;;;5.70;5.20;;;3.90;99.90;;;;;;5095118;28;20954;-46
2022/11/04 13:02:30;;;;;;;6.77;6.17;;;4.40;99.90;;;;;;5094824;28;20563;-47
2022/11/04 13:05:02;;;;;;;6.50;5.90;;;4.60;99.90;;;;;;5094793;28;20909;-47
2022/11/04 13:07:33;;;;;;;7.13;6.43;;;4.50;99.90;;;;;;5094890;28;20525;-49
2022/11/04 13:10:06;;;;;;;5.50;5.00;;;3.80;99.90;;;;;;5094504;28;20452;-46
2022/11/04 13:12:36;;;;;;;7.87;5.80;;;3.90;99.90;;;;;;5094772;28;20530;-46
2022/11/04 13:15:13;;;;;;;6.17;5.60;;;4.40;99.90;;;;;;5094320;28;20557;-48
2022/11/04 13:17:41;;;;;;;7.17;5.90;;;4.60;99.90;;;;;;5094774;28;20473;-47
2022/11/04 13:20:17;;;;;;;7.63;6.83;;;4.70;99.90;;;;;;5094409;28;20544;-47
2022/11/04 13:22:48;;;;;;;11.90;8.40;;;4.70;99.90;;;;;;5094436;28;20565;-48
2022/11/04 13:25:22;;;;;;;9.87;7.20;;;4.90;99.90;;;;;;5094380;28;20479;-46
2022/11/04 13:27:49;;;;;;;8.17;7.33;;;5.20;99.90;;;;;;5094289;28;20450;-48
2022/11/04 13:30:22;;;;;;;10.77;6.90;;;5.40;99.90;;;;;;5094451;28;20496;-47
2022/11/04 13:32:56;;;;;;;7.20;6.50;;;5.40;99.90;;;;;;5093962;28;20496;-46
2022/11/04 13:35:31;;;;;;;7.60;6.90;;;5.40;99.90;;;;;;5094597;28;20519;-48
2022/11/04 13:38:04;;;;;;;8.43;7.53;;;5.40;99.90;;;;;;5094304;28;20939;-47
2022/11/04 13:40:42;;;;;;;7.23;6.40;;;5.40;99.90;;;;;;5094573;28;20530;-48
2022/11/04 13:43:38;;;;;;;8.37;7.00;;;5.40;99.90;;;;;;5094456;28;20510;-47
2022/11/04 13:46:17;;;;;;;8.97;7.37;;;5.40;99.90;;;;;;5094814;28;20527;-47
2022/11/04 13:48:58;;;;;;;8.90;7.90;;;5.40;99.90;;;;;;5094185;28;20529;-47
2022/11/04 13:51:36;;;;;;;6.47;5.80;;;5.10;99.90;;;;;;5094232;28;20442;-49
2022/11/04 13:54:06;;;;;;;8.10;7.30;;;5.00;99.90;;;;;;5093986;28;20491;-47
2022/11/04 13:56:35;;;;;;;7.53;6.70;;;4.90;99.90;;;;;;5093857;28;20446;-47